createdAt,value
2023-02-11T00:02:47.451Z,35.25
2023-02-11T00:07:49.504Z,36.10
2023-02-11T00:12:51.140Z,34.95
2023-02-11T00:17:52.731Z,33.13
2023-02-11T00:22:54.337Z,30.23
2023-02-11T00:27:55.942Z,29.75
2023-02-11T00:32:57.730Z,34.05
2023-02-11T00:38:00.380Z,34.33
2023-02-11T00:43:01.983Z,26.88
2023-02-11T00:48:03.684Z,34.53
2023-02-11T00:53:05.318Z,33.53
2023-02-11T00:58:06.930Z,31.02
2023-02-11T01:03:08.585Z,30.30
2023-02-11T01:08:10.304Z,33.83
2023-02-11T01:13:12.261Z,33.08
2023-02-11T01:18:13.888Z,33.65
2023-02-11T01:23:16.577Z,31.95
2023-02-11T01:28:24.790Z,35.45
2023-02-11T01:33:27.096Z,30.77
2023-02-11T01:38:28.961Z,32.47
2023-02-11T01:43:41.811Z,31.67
2023-02-11T01:48:47.678Z,30.23
2023-02-11T01:54:08.888Z,30.80
2023-02-11T01:59:17.312Z,33.17
2023-02-11T02:04:20.413Z,29.35
2023-02-11T02:09:31.812Z,30.80
2023-02-11T02:14:33.550Z,31.67
2023-02-11T02:19:59.848Z,31.73
2023-02-11T02:25:29.596Z,31.63
2023-02-11T02:30:56.094Z,35.40
2023-02-11T02:36:29.957Z,30.90
2023-02-11T02:41:34.385Z,37.60
2023-02-11T02:46:36.828Z,36.08
2023-02-11T02:51:53.808Z,30.15
2023-02-11T02:57:07.502Z,31.73
2023-02-11T03:09:12.950Z,33.42
2023-02-11T03:14:17.241Z,34.47
2023-02-11T03:19:22.808Z,31.58
2023-02-11T03:24:30.693Z,40.53
2023-02-11T03:30:04.426Z,32.30
2023-02-11T03:35:12.177Z,33.90
2023-02-11T03:40:19.121Z,30.58
2023-02-11T03:45:23.771Z,32.35
2023-02-11T03:50:27.319Z,31.52
2023-02-11T03:55:31.191Z,33.85
2023-02-11T04:00:36.901Z,33.53
2023-02-11T04:05:39.087Z,35.53
2023-02-11T04:10:40.800Z,37.55
2023-02-11T04:15:42.477Z,33.38
2023-02-11T04:20:44.076Z,32.15
2023-02-11T04:25:45.703Z,30.02
2023-02-11T04:30:50.589Z,38.67
2023-02-11T04:35:52.522Z,36.28
2023-02-11T04:40:54.294Z,34.40
2023-02-11T04:45:59.381Z,34.65
2023-02-11T04:51:02.660Z,33.33
2023-02-11T04:56:04.516Z,33.35
2023-02-11T05:01:11.071Z,35.85
2023-02-11T05:06:12.808Z,38.83
2023-02-11T05:11:18.090Z,40.30
2023-02-11T05:16:19.866Z,36.22
2023-02-11T05:21:21.493Z,37.95
2023-02-11T05:26:23.113Z,41.33
2023-02-11T05:31:24.725Z,39.60
2023-02-11T05:36:26.332Z,38.38
2023-02-11T05:41:27.984Z,37.72
2023-02-11T05:46:29.675Z,37.45
2023-02-11T05:51:31.301Z,44.08
2023-02-11T05:56:33.039Z,42.03
2023-02-11T06:01:34.718Z,39.35
2023-02-11T06:06:36.609Z,41.50
2023-02-11T06:11:38.461Z,45.72
2023-02-11T06:16:40.164Z,43.05
2023-02-11T06:21:44.271Z,39.53
2023-02-11T06:26:46.179Z,46.40
2023-02-11T06:31:47.830Z,33.35
2023-02-11T06:36:49.490Z,39.15
2023-02-11T06:41:51.087Z,39.92
2023-02-11T06:46:52.771Z,38.97
2023-02-11T06:51:54.474Z,37.33
2023-02-11T06:56:56.115Z,35.70
2023-02-11T07:01:57.852Z,44.20
2023-02-11T07:06:59.487Z,46.22
2023-02-11T07:12:01.107Z,44.83
2023-02-11T07:17:04.836Z,44.45
2023-02-11T07:22:06.465Z,55.35
2023-02-11T07:27:08.129Z,44.03
2023-02-11T07:32:10.432Z,45.28
2023-02-11T07:37:12.115Z,45.58
2023-02-11T07:42:13.758Z,42.95
2023-02-11T07:47:15.697Z,48.55
2023-02-11T07:52:17.338Z,42.10
2023-02-11T07:57:18.929Z,46.47
2023-02-11T08:02:20.620Z,47.50
2023-02-11T08:07:22.376Z,40.83
2023-02-11T08:12:24.002Z,40.65
2023-02-11T08:17:25.634Z,43.85
2023-02-11T08:22:27.303Z,42.83
2023-02-11T08:27:29.035Z,38.55
2023-02-11T08:32:30.678Z,38.15
2023-02-11T08:37:33.226Z,41.33
2023-02-11T08:42:34.856Z,41.50
2023-02-11T08:47:37.174Z,42.70
2023-02-11T08:52:38.782Z,39.83
2023-02-11T08:57:40.424Z,40.83
2023-02-11T09:02:42.128Z,37.88
2023-02-11T09:07:43.785Z,35.08
2023-02-11T09:12:45.381Z,39.63
2023-02-11T09:17:46.995Z,35.90
2023-02-11T09:22:48.687Z,35.03
2023-02-11T09:27:51.451Z,37.40
2023-02-11T09:32:53.080Z,40.17
2023-02-11T09:37:54.842Z,40.38
2023-02-11T09:43:22.731Z,33.85
2023-02-11T09:48:24.394Z,40.55
2023-02-11T09:53:34.987Z,40.92
2023-02-11T09:58:39.943Z,39.53
2023-02-11T10:04:01.751Z,47.38
2023-02-11T10:09:18.494Z,40.58
2023-02-11T10:14:47.876Z,40.90
2023-02-11T10:20:08.063Z,36.90
2023-02-11T10:25:29.798Z,36.65
2023-02-11T10:30:36.262Z,34.00
2023-02-11T10:35:38.015Z,35.88
2023-02-11T10:40:39.755Z,44.60
2023-02-11T10:45:48.699Z,35.50
2023-02-11T10:50:50.646Z,34.70
2023-02-11T10:55:57.445Z,40.33
2023-02-11T11:01:00.271Z,37.47
2023-02-11T11:06:05.382Z,34.42
2023-02-11T11:11:10.688Z,37.85
2023-02-11T11:16:12.327Z,38.65
2023-02-11T11:21:18.866Z,35.63
2023-02-11T11:26:21.458Z,32.58
2023-02-11T11:31:37.699Z,33.58
2023-02-11T11:36:40.179Z,44.20
2023-02-11T11:41:51.650Z,34.80
2023-02-11T11:47:05.174Z,31.00
2023-02-11T11:52:31.644Z,32.78
2023-02-11T11:57:37.834Z,36.60
2023-02-11T12:03:05.034Z,33.88
2023-02-11T12:08:36.223Z,33.75
2023-02-11T12:13:55.737Z,30.83
2023-02-11T12:19:17.425Z,32.42
2023-02-11T12:24:37.393Z,33.88
2023-02-11T12:29:41.757Z,34.03
2023-02-11T12:35:11.460Z,36.70
2023-02-11T12:40:44.116Z,30.73
2023-02-11T12:46:26.686Z,32.80
2023-02-11T12:52:17.273Z,34.03
2023-02-11T12:57:26.550Z,33.85
2023-02-11T13:02:33.978Z,37.80
2023-02-11T13:07:41.783Z,38.15
2023-02-11T13:13:05.402Z,35.00
2023-02-11T13:18:19.197Z,34.75
2023-02-11T13:23:26.072Z,33.45
2023-02-11T13:28:42.695Z,35.33
2023-02-11T13:33:45.842Z,34.78
2023-02-11T13:38:57.927Z,27.58
2023-02-11T13:44:01.673Z,31.83
2023-02-11T13:49:03.467Z,31.50
2023-02-11T13:54:06.347Z,33.65
2023-02-11T13:59:32.998Z,34.10
2023-02-11T14:05:06.909Z,32.10
2023-02-11T14:10:42.249Z,35.85
2023-02-11T14:15:46.490Z,32.47
2023-02-11T14:20:49.152Z,40.13
2023-02-11T14:26:00.578Z,34.53
2023-02-11T14:31:12.490Z,27.33
2023-02-11T14:36:47.525Z,34.08
2023-02-11T14:41:51.176Z,33.40
2023-02-11T14:46:55.000Z,30.48
2023-02-11T14:52:03.918Z,33.05
2023-02-11T14:57:17.380Z,35.25
2023-02-11T15:02:23.991Z,34.90
2023-02-11T15:07:25.744Z,33.90
2023-02-11T15:12:28.539Z,33.25
2023-02-11T15:17:32.014Z,36.90
2023-02-11T15:22:36.958Z,32.47
2023-02-11T15:27:43.961Z,29.15
2023-02-11T15:32:45.809Z,24.58
2023-02-11T15:37:50.190Z,25.85
2023-02-11T15:43:01.706Z,28.20
2023-02-11T15:48:16.194Z,29.27
2023-02-11T15:53:20.509Z,29.02
2023-02-11T15:58:23.769Z,30.10
2023-02-11T16:03:33.096Z,32.75
2023-02-11T16:08:35.534Z,35.35
2023-02-11T16:13:46.459Z,32.65
2023-02-11T16:19:03.368Z,34.35
2023-02-11T16:24:08.236Z,32.85
2023-02-11T16:29:14.493Z,30.60
2023-02-11T16:34:20.374Z,40.15
2023-02-11T16:39:22.619Z,36.25
2023-02-11T16:44:24.301Z,36.00
2023-02-11T16:49:31.594Z,33.00
2023-02-11T16:54:33.906Z,34.25
2023-02-11T16:59:35.521Z,36.60
2023-02-11T17:04:37.203Z,40.30
2023-02-11T17:09:39.016Z,37.65
2023-02-11T17:14:40.803Z,42.90
2023-02-11T17:19:42.402Z,41.35
2023-02-11T17:24:44.031Z,28.85
2023-02-11T17:29:45.625Z,38.30
2023-02-11T17:34:47.235Z,30.88
2023-02-11T17:39:49.213Z,31.45
2023-02-11T17:44:50.875Z,32.90
2023-02-11T17:49:52.501Z,28.33
2023-02-11T17:54:55.331Z,32.58
2023-02-11T17:59:57.170Z,32.95
2023-02-11T18:04:59.011Z,32.65
2023-02-11T18:10:00.728Z,37.22
2023-02-11T18:15:02.534Z,31.63
2023-02-11T18:20:05.013Z,27.35
2023-02-11T18:25:08.207Z,28.50
2023-02-11T18:30:15.722Z,31.95
2023-02-11T18:35:17.423Z,29.45
2023-02-11T18:40:19.146Z,33.03
2023-02-11T18:45:20.918Z,33.85
2023-02-11T18:50:22.718Z,31.95
2023-02-11T18:55:25.959Z,30.77
2023-02-11T19:00:27.730Z,32.55
2023-02-11T19:05:33.337Z,34.17
2023-02-11T19:10:35.130Z,30.35
2023-02-11T19:15:41.809Z,33.88
2023-02-11T19:20:44.340Z,30.25
2023-02-11T19:25:47.526Z,32.42
2023-02-11T19:30:49.250Z,26.02
2023-02-11T19:35:51.172Z,24.63
2023-02-11T19:40:56.985Z,20.70
2023-02-11T19:45:58.681Z,24.52
2023-02-11T19:51:10.863Z,21.38
2023-02-11T19:56:15.570Z,25.13
2023-02-11T20:01:20.539Z,22.83
2023-02-11T20:06:25.296Z,22.80
2023-02-11T20:11:30.051Z,20.38
2023-02-11T20:16:46.995Z,19.52
2023-02-11T20:21:53.386Z,17.67
2023-02-11T20:26:57.820Z,19.35
2023-02-11T20:31:59.813Z,18.00
2023-02-11T20:37:04.113Z,17.77
2023-02-11T20:42:05.841Z,18.05
2023-02-11T20:47:07.468Z,17.55
2023-02-11T20:52:09.088Z,20.70
2023-02-11T20:57:10.692Z,18.17
2023-02-11T21:02:13.447Z,23.20
2023-02-11T21:07:15.099Z,19.55
2023-02-11T21:12:16.736Z,23.27
2023-02-11T21:17:18.513Z,22.88
2023-02-11T21:22:20.150Z,23.05
2023-02-11T21:27:21.962Z,24.60
2023-02-11T21:32:23.553Z,22.48
2023-02-11T21:37:25.209Z,23.25
2023-02-11T21:42:26.836Z,20.98
2023-02-11T21:47:28.478Z,21.40
2023-02-11T21:52:30.073Z,19.20
2023-02-11T21:57:31.788Z,19.50
2023-02-11T22:02:33.840Z,23.38
2023-02-11T22:07:36.499Z,24.30
2023-02-11T22:12:38.209Z,25.42
2023-02-11T22:17:39.880Z,30.25
2023-02-11T22:22:41.481Z,28.65
2023-02-11T22:27:43.329Z,32.58
2023-02-11T22:32:45.023Z,35.92
2023-02-11T22:37:46.679Z,36.17
2023-02-11T22:42:48.293Z,38.88
2023-02-11T22:47:49.892Z,35.13
2023-02-11T22:52:51.499Z,32.53
2023-02-11T22:57:53.893Z,38.83
2023-02-11T23:02:56.185Z,31.52
2023-02-11T23:07:57.891Z,34.33
2023-02-11T23:12:59.499Z,41.08
2023-02-11T23:18:01.137Z,43.53
2023-02-11T23:23:03.902Z,40.67
2023-02-11T23:28:05.529Z,42.08
2023-02-11T23:33:07.185Z,42.55
2023-02-11T23:38:08.829Z,50.00
2023-02-11T23:43:10.581Z,44.53
2023-02-11T23:48:12.193Z,53.40
2023-02-11T23:53:14.066Z,50.35
2023-02-11T23:58:15.829Z,49.63
